Datum rel. Luftdruck in hPa   Außentemp in°C Mittelwert Außenfeuchte Mittelwert in % Taupunkt in °C Mittelwert Windchill in °C Mittelwert Windgeschw in km/ h Mittelwert Gesamtregen in Ltr/m² Außentemp in °C Minwert Außentemp in °C Maxwert Windgeschw in km/h Maxwert Regenmenge täglich in Ltr/m²
   
max min mittelwert                    
01.01.2007 1021,2 1012,7 1016,95 5,8 79,1 2,4 4,3 8,2 22,7 1,1 10,4 46,8 22,7
02.01.2007 1022 1014,3 1018,15 1 80,8 -1,9 -0,8 5,7 24,2 -1,4 3,2 33,1 1,5
03.01.2007 1025,4 1014,5 1019,95 2,1 81,3 -0,7 -0,4 8,6 25,2 1,3 2,8 34,2 1
04.01.2007 1021,8 1010,4 1016,1 3,6 78,6 0,2 0,6 10,3 27,2 2,3 5,3 41,4 2
05.01.2007 1020,9 1012,1 1016,5 4,3 82,8 1,6 -0,2 13,1 32,7 3,6 5,2 42,4 5,5
06.01.2007 1021,7 1015,9 1018,8 6,3 90 4,7 5 6,2 37,8 5 7,8 29,1 5,1
07.01.2007 1020,1 1013,8 1016,95 5,5 82,7 2,8 3,2 8,9 42,6 1,5 8,8 45 4,8
08.01.2007 1018,3 1008,8 1013,55 4,9 81,5 1,9 3,5 6 45,8 1,2 7,8 19,8 3,2
09.01.2007 1020,2 1010,5 1015,35 9 84,5 6,5 7,2 8,3 47,3 6,4 11,1 46,4 1,5
10.01.2007 1020,8 1014,8 1017,8 10,2 66,4 4,1 8,7 8,1 47,8 7,2 13,4 65,8 0,5
11.01.2007 1021,6 1008,2 1014,9 4,9 75,4 0,9 -0,8 17,7 55,8 2,9 7,8 59 8
12.01.2007 1023,5 1008,2 1015,85 4,9 72 0,2 -0,3 15,8 56,8 3,1 8,3 52,9 1
13.01.2007 1023,6 1019,7 1021,65 8,1 79,5 4,7 4,8 11,2 57,3 6,1 9,8 41 0,5
14.01.2007 1031,3 1018,7 1025 6,3 66,9 0,3 3,2 10,9 57,8 0,1 10,4 51,1 0,5
15.01.2007 1031,4 1023,6 1027,5 -0,8 76,2 -4,6 -0,9 1,5 57,8 -4,8 7,8 16,9 0
16.01.2007 1024,1 1022 1023,05 1,5 79,7 -1,6 0,8 4,2 57,8 -3,2 5,1 24,4 0
17.01.2007 1021,9 1014 1017,95 6,2 79,2 2,8 4,8 6,5 59,3 1,9 11,4 39,9 1,5
18.01.2007 1013,9 991,1 1002,5 9,1 79,3 5,6 4,8 23,1 90,5 7,2 10,7 88,2 31,2
19.01.2007 1021,4 998,3 1009,85 7,1 63,8 0,5 1,8 17,6 92,1 4,2 12,1 73 1,6
20.01.2007 1021,2 1012,3 1016,75 9 76,7 5,1 6,6 9,6 97,6 5,1 11,2 50,7 5,5
21.01.2007 1015,2 1010,2 1012,7 3,6 68,7 -1,8 0,2 11,6 99,1 2,1 6,5 63,7 1,5
22.01.2007 1018,4 1014,9 1016,65 1,2 68,5 -3,9 -0,1 5,3 99,1 -4,6 3,5 35,2 0
23.01.2007 1018,5 1001,8 1010,15 -6,2 59,8 -12,9 -8,5 6,7 99,6 -8,4 -3,2 33,8 0,5
24.01.2007 1008,7 998,3 1003,5 -6,9 73,1 -10,8 -9,2 7 102,1 -7,7 -5,5 29,1 2,5
25.01.2007 1021,5 1008,8 1015,15 -5,9 74,7 -9,6 -7,2 5 103,8 -7,6 -1,7 34,5 1,7
26.01.2007 1021,5 1015 1018,25 -7,3 64,1 -13,1 -9,3 5,6 107,3 -12,9 0,1 35,2 3,5
27.01.2007 1025,7 1014,4 1020,05 -3,3 76,7 -6,8 -7,8 11 109,9 -7,2 -0,7 31,3 2,6
28.01.2007 1026,4 1014,6 1020,5 0,2 80,6 -2,7 -6,8 17,6 111,9 -1,5 1,1 59,6 2
29.01.2007 1022,2 1014,4 1018,3 2 81,2 -0,9 -2,1 11,4 118,5 0,8 5,1 42,1 6,6
30.01.2007 1023,8 1020,7 1022,25 1,8 78,4 -1,5 -0,4 7,8 119 1 4,1 31,6 0,5
31.01.2007 1023,3 1017 1020,15 2,4 69,8 -2,5 0,3 7,8 119 1,4 5,9 50,4 0
01.02.2007 1028,4 1017,7 1023,05 3,4 70,8 -1,7 1,4 6,6 119 -1,4 11,3 54,7 0
02.02.2007 1028,7 1026,9 1027,8 3,2 88,8 1,5 2,3 4,4 122,5 -0,8 5,4 18,7 3,5
03.02.2007 1031,4 1027,7 1029,55 3,5 70,9 -1,4 0,3 9,9 125 1,6 7,2 42,4 2,5
04.02.2007 1031,4 1024,3 1027,85 2,9 80,7 -0,2 2 4,6 125,8 0,8 4,9 22,6 0,8
05.02.2007 1024,3 1008,6 1016,45 0,6 81,1 -2,2 -1,1 6,6 126 -1,5 3 31,6 0,2
06.02.2007 1008,7 1003,7 1006,2 0 77,4 -3,5 -0,2 1,1 129,1 -1,8 1,1 13,6 3,1
07.02.2007 1003,8 999 1001,4 -0,6 82,5 -3,2 -0,7 1,5 132,7 -2,9 0,7 10 3,6
08.02.2007 1000,1 995,7 997,9 0,8 84,2 -1,5 0,2 3,1 146 -1,2 2,8 37,4 13,3
09.02.2007 1008,9 998,6 1003,75 2 79,1 -1,2 1,5 3,1 153,2 -1,7 4,3 24,4 7,2
10.02.2007 1010,3 1006,5 1008,4 1,9 82,3 -0,8 1,7 2,3 154,2 -1,8 6,4 19,4 1
11.02.2007 1010,6 1002,8 1006,7 3,6 83,7 1,1 2,1 6,3 160,9 2,4 4,7 28,8 6,7
12.02.2007 1003,8 997,1 1000,45 4,8 84,2 2,4 3,7 5,8 166,4 3,9 5,8 36,7 5,5
13.02.2007 1012,4 998,4 1005,4 4,3 80,4 1,2 1 10,8 171,4 3,7 5,7 37,8 5
14.02.2007 1013 1005,4 1009,2 4,3 74,6 0,1 3 6,2 175,4 2,1 6,5 31,3 4
15.02.2007 1025,7 1005,9 1015,8 3,4 82,5 0,7 0,6 9,1 182,1 2,2 5,7 36,7 6,7
16.02.2007 1027,3 1025,1 1026,2 3 69,2 -2,3 1,5 6,1 182,1 0,2 8,2 33,1 0
17.02.2007 1025,1 1018,7 1021,9 3,9 58 -4 0,1 11,9 182,1 0,2 10,7 48,6 0
18.02.2007 1018,6 1013,1 1015,85 1,2 61,7 -5,6 0,2 4,9 182,1 -3,5 10 24,4 0
19.02.2007 1016 1013,2 1014,6 1,4 78,2 -1,9 1,4 1 182,6 -2,3 4,1 13,3 0,5
20.02.2007 1014,8 1011,7 1013,25 4,3 69,5 -1 4 2,8 182,6 -1,3 12,1 19,8 0
21.02.2007 1015,7 1012,2 1013,95 4,2 71,8 -0,9 3,7 3,7 183,1 -1,7 13,8 28 0,5
22.02.2007 1015,2 1012,2 1013,7 5,1 66,7 -1 4,7 3 183,8 -1,2 12,9 27 0,7
23.02.2007 1015 1012,1 1013,55 4,5 64,4 -1,7 4 3,8 184 -1,4 8,4 20,8 0,2
24.02.2007 1012,1 1006,4 1009,25 3,1 73,5 -1,2 0,7 8,3 184,8 1,1 8,1 33,1 0,8
25.02.2007 1007,4 1001,5 1004,45 4,4 77 0,7 2,9 7 189,9 2,6 7,6 34,9 5,1
26.02.2007 1009,9 1003,1 1006,5 3,7 79,3 0,4 1,3 8,3 190,9 2,2 5,5 33,4 1
27.02.2007 1014,3 1005,8 1010,05 2,6 73,9 -1,5 -1,4 11,4 194,1 0,5 4,6 39,6 3,2
28.02.2007 1006,2 1001 1003,6 6,9 76,4 2,9 4,1 10,1 197,8 2,4 12,9 52,5 3,7
01.03.2007 1001,6 994,6 998,1 5,4 81 2,4 2,8 9,1 219,3 3 7,9 47,5 21,5
02.03.2007 1011 998,5 1004,75 2,9 71,1 -1,8 0,1 8,7 220,1 -2,3 5 46,4 0,8
03.03.2007 1015,1 1000,2 1007,65 2,8 80,6 -0,2 0 9 228,1 -3 9,1 56,8 8
04.03.2007 1022,9 1015,3 1019,1 4,7 68,1 -1,2 3,6 5,4 229,1 0,2 13,5 31,6 1
05.03.2007 1023,3 1015,9 1019,6 5,5 63 -1,1 4 6 229,6 1,4 11,7 30,6 0,5
06.03.2007 1023,1 1011,7 1017,4 6,3 65 -0,3 5,4 4,8 230,4 0,3 13,2 32,4 0,8
07.03.2007 1011,7 1006 1008,85 7,1 68,1 1,4 6,9 2,4 230,4 2,1 12,5 20,8 0
08.03.2007 1027,5 1009,7 1018,6 5 66,4 -1,4 4,5 3 230,6 -1,7 15,5 25,5 0,2
09.03.2007 1028,3 1024,1 1026,2 4,7 60,8 -2,9 4,3 2,4 231,4 -2,9 13,9 27,7 0,8
10.03.2007 1036,2 1025,6 1030,9 3,9 64 -2,9 3,2 4,3 235,4 -2,5 12,5 26,2 4
11.03.2007 1035,9 1032,6 1034,25 4,2 58,8 -4,1 3,9 1,7 236,7 -4,6 14,9 20,8 1,3
12.03.2007 1032,7 1026,8 1029,75 7,9 57 -1,1 7,4 3,7 236,9 -2,8 18,4 29,5 0,2
13.03.2007 1029,4 1026,2 1027,8 8,9 62,5 1 8,5 2,9 236,9 0,1 20,4 25,5 0
14.03.2007 1033,6 1029,3 1031,45 6,7 64,8 -0,6 6,4 2,5 237,1 -1,7 15,5 23 0,2
15.03.2007 1032,8 1026 1029,4 5,1 56,9 -4,7 5,1 1,1 237,6 -4,4 18,1 14,7 0,5
16.03.2007 1026,1 1021,9 1024 5,5 60,1 -3 5,1 2,7 237,8 -4,2 17,2 25,9 0,2
17.03.2007 1021,8 1017,4 1019,6 4,1 83 1,4 0,8 10,5 239,1 -1,8 6,3 45,7 1,3
18.03.2007 1017,5 997,1 1007,3 5,2 83,4 2,5 2 11,8 250,7 1,1 8,1 57,6 11,6
19.03.2007 997,6 992,6 995,1 1,3 79 -2 0,4 4,2 254,1 -0,8 4,5 33,1 3,4
20.03.2007 1000 995,7 997,85 0,4 80,2 -2,7 -0,7 4,9 255,9 -1,6 3,9 31,6 1,8
21.03.2007 1006,7 999,5 1003,1 0,1 82,1 -2,5 -0,8 5 261,6 -2,2 3,7 25,2 5,7
22.03.2007 1006,3 1003,4 1004,85 -0,2 84,3 -2,4 -1,2 4,5 270,1 -1,2 1,1 27 8,5
23.03.2007 1009,9 1003,2 1006,55 2,5 78,4 -1,2 1,7 3,6 278,9 -0,9 10,4 28,4 8,8
24.03.2007 1016 1005,5 1010,75 4,3 84,9 1,9 2,8 6,2 282,9 2,3 7,7 31,6 4
25.03.2007 1023,6 1016,1 1019,85 7,2 58,2 -0,9 4 11,2 282,9 2,8 13,5 48,2 0
26.03.2007 1024 1022,3 1023,15 9,3 45,8 -2,2 7,3 8,7 282,9 3,9 15,2 35,2 0
27.03.2007 1023,8 1020,4 1022,1 7,6 43,3 -5,5 5,8 7,9 282,9 -0,9 14,9 42,1 0
28.03.2007 1021,2 1015,8 1018,5 8,4 43,3 -4,9 7,2 5,9 282,9 -0,9 16,4 34,2 0
29.03.2007 1016,5 1014,5 1015,5 7,5 52,2 -1,9 5,8 7,7 282,9 3,1 12,2 25,2 0
30.03.2007 1014,9 1012,2 1013,55 7,8 64,5 0,7 6,8 5,8 282,9 1,8 17 23,7 0
31.03.2007 1022,2 1013,9 1018,05 8,2 59,7 0,3 6,7 7,2 283,1 2,5 14,5 38,1 0,2
01.04.2007 1028,8 1022,3 1025,55 9,8 40,1 -3,9 8,7 6,3 283,1 3,8 16,6 41 0
02.04.2007 1029,2 1020,9 1025,05 9,8 44,8 -2,6 9 4,9 283,6 0,5 18,2 28,8 0,5
03.04.2007 1020,8 1011,2 1016 5,7 65,5 -1 5,2 3,4 284,6 -1,6 16,8 31,3 1
04.04.2007 1020,7 1012,6 1016,65 4,7 56,7 -4,6 2,5 7,9 284,6 -1,9 13,2 35,2 0
05.04.2007 1020,9 1017,3 1019,1 5,8 47 -6,5 5,1 4,4 284,6 -5,3 16,9 31,4 0
06.04.2007 1022,2 1019,7 1020,95 9,4 58,5 0,2 9 3,1 284,6 -1,6 20,7 26,2 0
07.04.2007 1024,5 1020,9 1022,7 6,2 70,8 0,9 5,9 2,2 284,6 -0,8 12,6 27,7 0
08.04.2007 1025,9 1021,5 1023,7 4 69,8 -1,6 3,8 1,4 284,6 -4,5 15,1 16,9 0
09.04.2007 1021,5 1016,8 1019,15 8,8 56,2 -0,9 7,3 7,4 284,6 -1 17 41,7 0
10.04.2007 1024,2 1018,6 1021,4 8,5 63,9 1,6 7,5 5,2 284,6 0,7 15,8 33,1 0
11.04.2007 1025,6 1024 1024,8 10,2 63,9 2,6 10,1 1,8 284,6 0,8 20,5 21,2 0
12.04.2007 1025,6 1023,1 1024,35 12 60,6 3,3 11,7 3 284,6 0,1 24,5 25,5 0
13.04.2007 1024,3 1022,4 1023,35 15,7 45,6 2,6 14,9 6,4 284,6 4,8 23,6 33,8 0
14.04.2007 1025,7 1023 1024,35 17,4 36,4 1 16,9 5,6 284,6 9,4 25,6 33,1 0
15.04.2007 1027 1024,5 1025,75 15,9 36,8 -0,7 15,4 4,4 284,6 5,6 25,4 27 0
16.04.2007 1025,9 1022,1 1024 16,2 38 0,2 16 3,5 284,6 7,5 25,5 21,9 0
17.04.2007 1022,2 1016,5 1019,35 15,2 49,3 2,4 15 3,2 284,6 3,5 27 26,2 0
18.04.2007 1022,8 1018,4 1020,6 8,4 52,3 -1,5 7,3 5,9 284,6 3,1 13,7 30,2 0
19.04.2007 1023,1 1016,4 1019,75 8,2 47,6 -4,3 7,6 3,8 284,6 -1,9 18,1 32,7 0
20.04.2007 1022,6 1016,6 1019,6 8 48,8 -4 7,5 3,5 284,6 -0,3 18,2 25,5 0
21.04.2007 1024,4 1022,1 1023,25 7,1 47,3 -5,3 6,9 1,8 284,6 -3,5 18,5 11,8 0
22.04.2007 1025,3 1023 1024,15 10,3 43,3 -3,9 9,9 3,6 284,6 -2,2 21,7 23,4 0
23.04.2007 1023,8 1021 1022,4 15,5 38,7 -0,3 15,2 3,8 284,6 3,5 25,2 28,4 0
24.04.2007 1022,9 1021,5 1022,2 12,9 75,8 8,6 12,8 1,3 290,2 9,9 17,3 16,2 5,6
25.04.2007 1021,8 1019,7 1020,75 15,1 61,4 6,2 14,5 5 290,2 7,3 23,5 26,6 0
26.04.2007 1022 1020,3 1021,15 15,9 43,4 1,7 15,2 5,5 290,2 4,6 24,4 33,1 0
27.04.2007 1023,1 1021,4 1022,25 16,9 43,6 2,2 16,5 3,8 290,2 6,1 25,8 32 0
28.04.2007 1023,3 1020 1021,65 18,4 42,1 2,7 18,3 2 290,2 5,4 30,2 24,8 0
29.04.2007 1021,8 1018,8 1020,3 12,9 53,2 2,6 12,1 5,2 290,2 5,1 20,3 36 0
30.04.2007 1019,5 1016,3 1017,9 10,2 41,8 -4,2 9,4 4,8 290,2 -1,1 20,7 31,2 0
01.05.2007 1018,9 1017,2 1018,05 9,7 39,8 -5,7 9 4,5 290,2 0,5 17,9 34,9 0
02.05.2007 1019 1015,1 1017,05 10,2 26,8 -8,8 8,7 7,2 290,2 1,1 18,3 33,4 0
03.05.2007 1015,7 1013,3 1014,5 12,2 34,7 -4,5 11,1 6,5 290,2 1,2 20,9 33,1 0
04.05.2007 1013,7 1008,9 1011,3 14,3 44,7 1,4 13,2 7,1 290,2 3,7 22,1 36,3 0
05.05.2007 1014,3 1009,2 1011,75 14,4 50,1 3,9 14 4,2 290,2 10,8 19,8 39,6 0
06.05.2007 1016,5 1013,9 1015,2 14,7 46,5 1,9 14,3 3,4 290,2 7,5 23,5 31,6 0
07.05.2007 1016,4 1010,5 1013,45 11,1 72,5 6,1 9,9 6,4 290,2 5,3 17,2 45,3 0
08.05.2007 1013,3 1009,2 1011,25 10,8 82,3 7,8 8,6 9,3 314,4 8,4 14,9 37 24,2
09.05.2007 1016,3 1012,3 1014,3 9,1 89,3 7,3 8,2 4,5 337,3 6,2 12 38,8 22,9
10.05.2007 1016,1 1010,6 1013,35 14,3 72,1 8,6 13,3 6,8 337,3 9,8 20,8 53,2 0
11.05.2007 1012,6 1004,9 1008,75 15,5 44,6 3,2 13,3 13,6 337,3 7,4 19,7 72,7 0
12.05.2007 1016,2 1010,1 1013,15 13,7 55 4,3 12,4 8,3 337,3 5,3 19,1 58,6 0
13.05.2007 1016,5 1009,4 1012,95 15,8 55,7 5,4 15,3 4,7 337,3 3,8 24,9 28,4 0
14.05.2007 1013,9 1006,5 1010,2 18,8 52,7 7,6 18,2 5,2 350,2 10,2 26,5 21,6 12,9
15.05.2007 1017,7 1010,8 1014,25 10,4 79,6 6,6 9,2 6,3 357,7 5,7 17,2 32 7,5
16.05.2007 1017,7 1009,7 1013,7 10 73,5 4,7 9,4 4,6 361,1 5,1 15,8 18 3,4
17.05.2007 1017,3 1010 1013,65 7,8 75 3,4 7,1 4,6 367,5 2,7 12,7 34,2 6,4
18.05.2007 1021,1 1017,9 1019,5 10,5 58,4 1,1 10 3,5 367,5 -0,9 19,5 23,7 0
19.05.2007 1018,4 1016,2 1017,3 15,9 51,6 3,9 15,6 4,1 367,5 3,6 26,5 28 0
20.05.2007 1018,5 1016,3 1017,4 18,8 49,4 5,7 18,6 3,8 367,5 6,8 27,1 29,1 0
21.05.2007 1018,4 1016,7 1017,55 23,3 46,2 9,3 23,2 4 367,5 14,8 32,4 22,6 0
22.05.2007 1021,3 1018,4 1019,85 19,1 69,8 12,6 19 1,6 373,3 12,5 31,7 17,2 5,8
23.05.2007 1022,7 1020,8 1021,75 19,9 70,8 13,5 19,8 2,7 373,3 14,5 29,6 16,9 0
24.05.2007 1021,9 1016 1018,95 20,6 56,8 10,1 20,3 4,2 373,3 11,2 28,8 27,3 0
25.05.2007 1015,9 1009,1 1012,5 20,6 61,2 12,4 20,5 3,3 374,6 14,4 29,2 19 1,3
26.05.2007 1010,3 1004,1 1007,2 21,6 55,4 10,9 21,3 4,4 375,4 14,3 31,5 30,2 0,8
27.05.2007 1004,7 999,8 1002,25 18,9 62,9 11 18,5 3,7 376,7 13,1 27 33,8 1,3
28.05.2007 1000,9 997,3 999,1 14,3 88 12,2 13,9 3,9 401,7 12,2 18,3 24,1 25
29.05.2007 1010 996,2 1003,1 12 94,4 11,1 11,2 5,4 432,6 8,3 14,2 39,2 30,9
30.05.2007 1016,4 1010,7 1013,55 11 63,9 2,9 9,9 5,6 432,6 5,5 19,1 18,3 0
31.05.2007 1016,6 1014,7 1015,65 12,2 53,2 1 12 2,9 432,6 1,8 21,4 23 0
01.06.2007 1018,9 1014,3 1016,6 16,5 55,7 6,5 15,8 5,7 432,6 8,1 24,7 27,7 0
02.06.2007 1023,4 1019 1021,2 14,5 81,4 11,2 14,3 3,2 438,4 11,4 20,2 27,9 5,8
03.06.2007 1023,3 1022 1022,65 15,2 82 11,9 15 2,5 438,4 13,4 19,1 24,1 0
04.06.2007 1022,7 1021,4 1022,05 17,3 72,4 11,7 17,1 2,9 438,4 13,6 22,2 22,6 0
05.06.2007 1022,1 1018,8 1020,45 17,9 68,9 11,5 17,7 2,9 438,4 13,2 24,5 23 0
06.06.2007 1019,4 1016,9 1018,15 19 71,5 13,1 18,8 3 438,4 11,5 26,1 29,5 0
07.06.2007 1018,3 1016,4 1017,35 21,7 55,8 11 21,2 6,2 438,4 13 29,7 32,7 0
08.06.2007 1020 1018,1 1019,05 22,8 50,7 10,5 22,5 4,9 438,4 13,8 30,2 26,2 0
09.06.2007 1019,9 1017,2 1018,55 22,8 47,3 8,9 22,7 2,8 439,4 13 32,7 15,4 1
10.06.2007 1018,4 1016,1 1017,25 19,5 65 12,1 19,4 2,5 446,6 13,8 27,8 36,7 7,2
11.06.2007 1016,6 1014,4 1015,5 19,1 67,9 12,3 19 1,6 447,6 12 28,7 22,6 1
12.06.2007 1014,7 1010,9 1012,8 17,6 79,1 13,4 17,5 2,5 464,9 13,7 26,9 22,3 17,3
13.06.2007 1012,6 1010,9 1011,75 19 66,6 11 18,8 3,2 477,4 11,7 26,8 26,6 12,5
14.06.2007 1012,5 1008,8 1010,65 19,7 61,9 11,1 19,5 3,7 477,4 10,8 30,5 21,6 0
15.06.2007 1011,1 1006,1 1008,6 20,8 63,6 12,6 20,4 5,2 503,2 13,7 29,5 41,4 25,8
16.06.2007 1013,4 1009,2 1011,3 15,2 77,6 10,8 14,6 4,6 511,4 11,3 22,2 32,7 8,2
17.06.2007 1014 1010,6 1012,3 17,4 58,7 7,3 17 3,8 512,7 8,4 26,5 29,8 1,3
18.06.2007 1016,6 1010,5 1013,55 18,5 64,7 10,8 17,8 6 515,9 13,2 25,7 43,9 3,2
19.06.2007 1018,4 1016,7 1017,55 21,4 57,6 10,9 21,4 2,4 516,7 13,1 30,2 24,4 0,8
20.06.2007 1017,2 1015,3 1016,25 23 51,5 11,6 22,8 3,8 517,2 16,3 31,5 21,6 0,5
21.06.2007 1016,5 1011,7 1014,1 18,5 82,3 15,3 18 4,3 528,4 15,8 22,7 37,4 11,2
22.06.2007 1015,6 1012,9 1014,25 16,9 68,5 10,2 16,5 4,1 532 12,4 25,2 42,1 3,6
23.06.2007 1016,5 1012,5 1014,5 14,8 73,6 9,9 14,2 5,2 533 12,1 19,4 36,7 1
24.06.2007 1018,4 1014,5 1016,45 17,7 61,4 9,2 17,2 4,7 533 12,2 24,3 28,4 0
25.06.2007 1015,7 1006,5 1011,1 18,8 62,4 10,8 18,4 4,3 536,6 13,2 28,3 19,8 3,6
26.06.2007 1008,1 1001,8 1004,95 12,3 82,2 9,2 10,3 9 550,6 10,3 14,3 43,2 14
27.06.2007 1011,6 1007,1 1009,35 11,1 64,1 4 8,9 9,2 550,6 7,1 15,9 39,9 0
28.06.2007 1017,5 1011,8 1014,65 11,7 75,7 7,5 11,1 4,9 562 9,5 17,1 34,9 11,4
29.06.2007 1018,4 1016,5 1017,45 14,3 68,7 8 13,9 3,6 562 9,2 19,5 31,6 0
30.06.2007 1018,8 1017 1017,9 14,8 74,7 10,2 14 5,8 562 11,5 19,7 33,8 0
01.07.2007 1018,2 1012,3 1015,25 18,5 63,9 10,3 18,2 3,8 562 9,8 28 29,1 0
02.07.2007 1013,3 1010,9 1012,1 16,2 79,5 12,6 16,1 2,1 566,1 14,3 18,2 19,1 4,1
03.07.2007 1012,7 1007 1009,85 14,8 73,8 9,8 14,3 4,7 568,1 12,1 19,9 33,8 2
04.07.2007 1010,3 1004,4 1007,35 13,3 76,9 9,2 12,1 7,2 573,2 11,1 17,7 38,8 5,1
05.07.2007 1013,5 1010,2 1011,85 12 87,6 9,9 9,6 10,3 579,8 10,7 15,3 47,1 6,6
06.07.2007 1014,2 1010,8 1012,5 14,3 73,5 9 12,5 9,6 582,8 11,3 20,5 49,3 3
07.07.2007 1020 1014,4 1017,2 16 52,2 5,3 14,7 7,8 582,8 9,8 21,7 39,6 0
08.07.2007 1020,8 1016,7 1018,75 16,7 55,5 6,3 16,6 2,3 582,8 5,7 24,7 28,4 0
09.07.2007 1016 1012,1 1014,05 15,5 78,6 11,7 15,1 3,8 597,2 11,2 20,1 27,3 14,4
10.07.2007 1014,7 1012,4 1013,55 12,8 73,6 7,7 12 5,1 609,1 9,8 19,1 36 11,9
11.07.2007 1016,2 1014,4 1015,3 13 71,1 7,4 12,6 4 609,1 8,7 19 51,1 0
12.07.2007 1019,8 1016 1017,9 14,4 69,4 8,6 13,2 6,4 609,1 11,2 19,7 34,2 0
13.07.2007 1021,2 1019 1020,1 16,4 78,2 12,4 15,9 3,6 609,1 12,7 22,1 30,9 0
14.07.2007 1021,6 1019,9 1020,75 22,2 58,2 11,3 21,9 4,9 609,1 11,5 31,5 34,5 0
15.07.2007 1022 1018 1020 25 47,8 10,5 24,9 4,9 609,1 14,1 34,2 26,6 0
16.07.2007 1018,5 1015,7 1017,1 27,1 44,2 11,6 27,1 2,2 609,1 15,4 36,7 19,8 0
17.07.2007 1022 1015,7 1018,85 25,1 47,9 11,7 25 4,7 609,1 16,7 31,4 32,4 0
18.07.2007 1023,3 1020,9 1022,1 19,9 66,4 12,9 19,9 1,4 612,3 15,7 27,4 16,9 3,2
19.07.2007 1022,7 1018 1020,35 21 62,4 12,3 20,9 2,8 612,8 12,1 30,5 24,1 0,5
20.07.2007 1019,4 1015,7 1017,55 20,5 70 13,6 20,4 3,3 619,4 13,4 30,9 48,6 6,6
21.07.2007 1020,5 1014,2 1017,35 20,9 70 14,6 20,7 3,5 619,9 16,1 27,8 26,2 0,5
22.07.2007 1015,3 1012,3 1013,8 17,3 71,8 11,2 16,3 6,9 661,3 11,5 23,5 38,5 41,4
23.07.2007 1015,1 1004 1009,55 18,3 58,5 8,7 17,8 5,4 662,8 8,8 26,4 30,9 1,5
24.07.2007 1013,2 1005,1 1009,15 16,5 67,5 10,1 14,4 11,2 663,8 12,9 22,3 45,3 1
25.07.2007 1019 1013,7 1016,35 16,3 59,9 7,5 14,5 9,2 663,8 11,3 22,7 36,7 0
26.07.2007 1019 1013,8 1016,4 18,9 51 6,5 18,7 3,5 663,8 7,9 27,4 29,5 0
27.07.2007 1019,1 1013,3 1016,2 19,5 52,5 9 18,9 5,9 663,8 13,4 24,7 42,8 0
28.07.2007 1019,1 1015,6 1017,35 16,5 77,5 12,4 15,9 4,8 668,4 12,5 21,7 39,6 4,6
29.07.2007 1019,1 1009 1014,05 14,7 86,5 12,3 13,8 6 677,2 11,6 17,7 45,7 8,8
30.07.2007 1019,3 1012,5 1015,9 12,1 71,9 6,7 10,1 9,3 678,7 9,2 16,7 44,2 1,5
31.07.2007 1021,7 1018,7 1020,2 11 72,4 5,7 10,4 3,9 678,7 6,2 15 13,3 0
01.08.2007 1021,7 1017,5 1019,6 13,7 58,4 3,9 13,5 2,8 678,7 2,4 21,9 14,4 0
02.08.2007 1017,3 1012,4 1014,85 17,4 57 8,3 16,7 6,5 678,7 10,5 26,1 34,2 0
03.08.2007 1025,8 1017 1021,4 15,6 69,3 9,5 15,3 3,6 678,7 10,8 22,3 24,4 0
04.08.2007 1027,6 1025 1026,3 16,8 57,2 6,3 16,7 1,8 678,7 5,5 26,2 21,9 0
05.08.2007 1025,7 1018,5 1022,1 18 53 6,6 17,7 3,3 678,7 7,9 26,4 22,3 0
06.08.2007 1018,5 1013,4 1015,95 19,6 49,2 7,1 19,4 3,2 678,7 8,9 28,7 26,2 0
07.08.2007 1014 1012,3 1013,15 22 49,6 8,8 21,9 2,3 678,7 11,3 31,7 27,3 0
08.08.2007 1013,7 1011,9 1012,8 17,2 83,7 14,3 17 3,1 686,4 15,5 20,4 14 7,7
09.08.2007 1012,9 1010,9 1011,9 16,2 93,9 15,1 16 2,5 734 14,5 21,4 14 47,6
10.08.2007 1014,3 1012,1 1013,2 15,4 96 14,7 15,3 2,5 751,1 13,8 17,7 22,6 17,1
11.08.2007 1012,4 1010,6 1011,5 15 96 14,3 14,7 3,9 755,7 13,7 16,5 23,4 4,6
12.08.2007 1012,2 1009,9 1011,05 17,8 73,2 11,9 17,6 3,2 755,7 12,7 25,1 26,2 0
13.08.2007 1014,6 1010,4 1012,5 16,5 74,2 11,2 16,1 3,5 756,7 9,4 24,4 31,3 1
14.08.2007 1014,8 1011,7 1013,25 18,3 68,7 11,2 18,2 2,3 756,7 10,9 27,2 32 0
15.08.2007 1011,4 1008,1 1009,75 22,1 60 13,4 21,6 6 756,7 14,9 28,7 32,8 0
16.08.2007 1016,6 1006,7 1011,65 18,7 71,3 13,2 18,4 4,4 760,8 12,7 22,7 29,5 4,1
17.08.2007 1019,9 1016,7 1018,3 15 70,4 8,9 14,7 2,9 760,8 10,5 22,1 27,7 0
18.08.2007 1019,7 1015,8 1017,75 14,3 68,4 7,6 14,2 2,2 760,8 7,3 21,8 16,5 0
19.08.2007 1015,7 1009,1 1012,4 17,1 62 8,7 17 2,4 760,8 9,5 25,1 25,2 0
20.08.2007 1009,7 1006,4 1008,05 17,3 65,5 10,1 17 3,4 761,3 11,1 23,4 25,5 0,5
21.08.2007 1007,5 1003,9 1005,7 14,8 90 13,1 14,7 2,4 790,8 12,8 20,4 22,6 29,5
22.08.2007 1012,7 1007,4 1010,05 16,7 75,4 11,5 16,4 3 790,8 11,6 25,7 25,5 0
23.08.2007 1017,7 1012,5 1015,1 16,3 81,4 12,7 16,2 1,6 806,3 11,3 24,6 26,6 15,5
24.08.2007 1026,1 1017,9 1022 19 68,6 11,8 18,9 2,4 806,3 10,4 27,8 30,2 0
25.08.2007 1027,4 1026 1026,7 19,8 64,6 11,5 19,8 2 806,3 10,4 29,6 32,4 0
26.08.2007 1026,5 1023,1 1024,8 20,2 64,1 12 20 3,4 806,3 11,2 29,2 36 0
27.08.2007 1023,3 1018,6 1020,95 17,5 65,7 10,2 17,4 2 806,3 11,4 27,4 23,4 0
28.08.2007 1019,7 1017 1018,35 13,7 67,7 7,1 13,6 1,4 806,3 7,8 20,4 16,9 0
29.08.2007 1017,5 1014,3 1015,9 13,8 60,9 5,8 13,5 3,3 806,3 9,3 20,5 27 0
30.08.2007 1017,3 1015,6 1016,45 14,1 56,8 4 14 1,6 806,3 7,8 22,1 26,2 0
31.08.2007 1017,6 1015,2 1016,4 14 72,8 9 13,2 5,5 808,8 10,6 18,7 31,3 2,5
01.09.2007 1019,7 1015,7 1017,7 13,6 82,4 10,4 13,2 3,6 813,4 11,5 19,1 21,6 4,6
02.09.2007 1019,7 1015,2 1017,45 14,4 73,7 9,3 14 3,2 813,4 11,1 18,5 30,2 0
03.09.2007 1014,7 1009,7 1012,2 12,1 84,2 9,4 11,8 3,6 822,7 8,1 16,2 36,3 9,3
04.09.2007 1020,4 1014,3 1017,35 8,7 79,8 5 7,7 5,6 827,3 5,1 14,4 33,8 4,6
05.09.2007 1024,3 1019,4 1021,85 9,1 77,2 5 8,3 5,4 833 5,2 14,5 27 5,7
06.09.2007 1023,5 1021,1 1022,3 10,9 80,2 7,3 9,9 6,3 833,5 6,8 17,6 34,5 0,5
07.09.2007 1023 1021,1 1022,05 12,1 88 10,1 11,4 5,3 834,5 10,3 15,4 27,3 1
08.09.2007 1022,7 1017,4 1020,05 12,3 93,3 11,1 11,5 5,6 837,6 11,5 13,4 26,2 3,1
09.09.2007 1018,4 1015,7 1017,05 11,7 82,3 8,6 10,2 7,5 839,1 9,6 14,6 32,7 1,5
10.09.2007 1018,5 1008 1013,25 10,4 87,9 8,4 9,5 5,3 853 8,8 12,2 33,8 13,9
11.09.2007 1021,4 1009,8 1015,6 10,9 85,5 8,4 9,9 5,6 857,6 8,5 15,6 29,5 4,6
12.09.2007 1025,4 1021,5 1023,45 11,9 80,1 8,2 11,7 2,4 860,7 5,8 17,4 23,4 3,1
13.09.2007 1025,4 1021,9 1023,65 11,2 76,8 6,5 11,2 1 860,7 4,1 21,2 16,9 0
14.09.2007 1021,8 1015,8 1018,8 13,1 70,8 7,1 12,6 4,2 860,7 4 22,1 29,5 0
15.09.2007 1023,3 1017,2 1020,25 13,3 61,5 5,2 12,4 6,1 860,7 5,9 20,1 31,3 0
16.09.2007 1022,9 1013,2 1018,05 10,6 69,7 4,5 10,5 1,9 860,7 1,1 22,7 13,3 0
17.09.2007 1014,5 1008,4 1011,45 16,1 67,8 9,4 16 1,6 863,2 8,6 23,3 27 2,5
18.09.2007 1019,8 1004,9 1012,35 10,9 88 8,9 10,3 3,8 870,8 4,5 14,4 28 7,6
19.09.2007 1023,2 1019,8 1021,5 7,3 75 2,6 7 2,2 871,3 1,7 13,4 25,5 0,5
20.09.2007 1024,2 1022,5 1023,35 8,6 65,3 1,9 8,4 2 871,3 -0,5 17,7 30,6 0
21.09.2007 1024,7 1021,8 1023,25 11,9 66,1 5 11,7 2,4 871,3 3,8 22,1 20,5 0
22.09.2007 1023,4 1021,5 1022,45 14,2 66,6 7,3 14,2 1,4 871,3 6,2 24,3 9,7 0
23.09.2007 1024 1021,7 1022,85 14,8 66,1 7,5 14,7 1,8 871,3 5,6 25,1 10 0
24.09.2007 1021,6 1014,3 1017,95 15,8 64,4 8,2 15,5 3,4 871,3 7,6 23,4 21,2 0
25.09.2007 1016 1012,5 1014,25 11,3 82,1 8,3 11,2 1,7 878,5 9,3 14,4 25,5 7,2
26.09.2007 1015,9 1010,2 1013,05 9,6 80,6 6,3 9,6 1,3 883,1 7,5 15,3 15,4 4,6
27.09.2007 1010,1 1003,6 1006,85 9,9 95,3 9,2 9,5 3,4 895 7,4 11,6 24,4 11,9
28.09.2007 1005,3 1000,6 1002,95 10 94,8 9,2 9,7 2,2 908,9 8,5 11 31,6 13,9
29.09.2007 1016,9 1003,2 1010,05 10,5 82,1 7,4 9,4 6,9 912 8,5 13,4 35,2 3,1
30.09.2007 1025,5 1016,9 1021,2 11,6 68,1 5,4 11,3 2,7 912 4 19,5 27,3 0
01.10.2007 1025,5 1021,8 1023,65 11,7 69,8 5,5 11,6 1,5 912 2,8 21,4 11,1 0
02.10.2007 1021,5 1019,1 1020,3 14,6 78,1 10,7 14,5 2,2 912 11,5 19,9 18 0
03.10.2007 1020,7 1018,9 1019,8 13,5 85 10,9 13,4 2,1 912 11,7 16,3 24,2 0
04.10.2007 1020,6 1018,9 1019,75 15 87,8 12,9 14,9 1,4 912 12,6 19,2 25,5 0
05.10.2007 1023,1 1020,3 1021,7 12,9 78,2 8,8 12,8 1,6 912 5,6 17,7 22,6 0
06.10.2007 1023,2 1021,8 1022,5 8,3 80,3 4,9 8,2 1,8 912 2,9 14,4 23 0
07.10.2007 1022,7 1020 1021,35 10 68,6 3,7 10 0,7 912 2,8 18,5 15,1 0
08.10.2007 1023,6 1020,1 1021,85 8,4 68,7 2,5 8,4 0,8 912 0,1 19,8 10 0
09.10.2007 1024,7 1022,5 1023,6 7,8 75,4 3,5 7,8 0,8 912 1,1 13,2 14,4 0
10.10.2007 1024,9 1021,7 1023,3 10,4 70,6 5 10,3 2,4 912 6,5 16,7 16,9 0
11.10.2007 1027,2 1022,1 1024,65 9,9 72 4,6 9,9 0,6 912 4,1 17,4 11,1 0
12.10.2007 1022,2 1018,9 1020,55 7,1 85 4,6 6,7 2,6 912,5 1,9 11,2 26,6 0,5
13.10.2007 1026,6 1022 1024,3 9,2 72,2 3,9 9,1 1,5 912,5 1,5 15,3 16,2 0
14.10.2007 1026,5 1023 1024,75 5,9 63 -1,4 5,6 2,5 912,5 -1,9 14,8 19,8 0
15.10.2007 1023 1018,1 1020,55 9 59,3 0,8 8,6 3,1 912,5 2,3 19,6 20,5 0
16.10.2007 1021 1019,1 1020,05 10 73 5 9,8 2,2 912,5 3,4 18,6 32,4 0
17.10.2007 1020,3 1014 1017,15 10,7 74,9 6 10,5 3,3 915 3 20,1 48,2 2,5
18.10.2007 1025,4 1013,7 1019,55 6,6 84,3 4,1 5,6 5,5 918,6 3,5 11,7 37,8 3,6
19.10.2007 1027,5 1024,6 1026,05 2,9 87,5 1 2,7 1,9 924,3 1 7,1 16,5 5,7
20.10.2007 1031,7 1027,4 1029,55 2,4 80,1 -0,7 2,3 1,5 924,3 0,5 6,2 19,4 0
21.10.2007 1029 1022,7 1025,85 1,9 84,3 -0,5 1,9 0,9 929,4 -0,5 5,3 15,4 5,1
22.10.2007 1025,7 1023,1 1024,4 -0,8 85,7 -2,9 -1,2 2,5 929,4 -4,6 1,1 23 0
23.10.2007 1023 1020,2 1021,6 1 90,9 -0,3 0 5,2 929,4 0,3 1,8 31,6 0
24.10.2007 1022 1019,8 1020,9 2,4 94 1,5 1,8 3,6 929,4 1,1 4 21,6 0
25.10.2007 1022 1020,6 1021,3 4,7 94,3 3,8 4,5 1,9 929,4 3,1 6,5 18,3 0
26.10.2007 1021,6 1018,1 1019,85 6,1 87,8 4,2 5,8 2,5 929,4 4,9 7,8 19 0
27.10.2007 1026,7 1020,7 1023,7 6,1 88,5 4,3 6,1 0,6 929,4 5 8,1 16,9 0
28.10.2007 1026,2 1020 1023,1 6,2 80,1 2,8 5,7 3,4 929,4 3,8 10,7 25,5 0
29.10.2007 1020 1011,2 1015,6 6,1 79 2,6 5,8 3,1 929,4 2,3 11,5 19 0
30.10.2007 1020,9 1010,2 1015,55 6,4 85,2 4 6,2 2,1 929,4 3 8,7 21,2 0
31.10.2007 1029,4 1020,9 1025,15 4,8 81 1,7 4,8 0,5 929,4 -0,9 11,3 9,3 0
01.11.2007 1031,8 1029,4 1030,6 4 72 -0,9 4 0,8 929,4 -2,4 14,1 14,7 0
02.11.2007 1031,8 1030,2 1031 6,3 87,6 4,4 6,3 0,8 929,4 1,8 10,1 9,3 0
03.11.2007 1030,9 1022,3 1026,6 8,8 94,2 7,9 8,5 2,7 930,4 7 10,8 21,9 1
04.11.2007 1026,9 1021,9 1024,4 6,4 86,8 4,3 6,4 1,1 930,9 4,5 9,5 22,3 0,5
05.11.2007 1028,4 1021,1 1024,75 4,7 75 0,3 4,6 0,9 930,9 0,6 11,5 15,4 0
06.11.2007 1023 1016,8 1019,9 3,3 80,1 0,2 1,3 7,4 935,1 0,8 8,2 46,4 4,2
07.11.2007 1023,3 1012,9 1018,1 2,8 89,7 1,3 -0,3 10,8 938,2 1,2 5 49,6 3,1
08.11.2007 1017,4 1007 1012,2 5,8 88,9 4 4,2 6,6 940,7 4,1 8,7 29,5 2,5
09.11.2007 1012,6 999,8 1006,2 3 84,4 0,6 -0,8 12,1 946,4 1,2 6,5 45 5,7
10.11.2007 1012,6 1005,8 1009,2 0,5 87,7 -1,2 -1,4 7 948,9 -0,8 1,2 36 2,5
11.11.2007 1011,5 997,7 1004,6 1,4 91 0,1 -0,1 5,7 957,1 -0,8 5,4 45,3 8,2
12.11.2007 1013,2 1008,2 1010,7 0,4 87,2 -1,4 -1,6 7,1 958,1 -0,5 1,4 40,3 1
13.11.2007 1013,3 1002,7 1008 0,6 88,3 -1,1 -0,4 4,8 960,1 -0,3 2,4 31,6 2
14.11.2007 1011,8 1000,2 1006 -0,7 86,9 -2,6 -0,9 1,6 963,6 -1,9 0,1 31,6 3,5
15.11.2007 1022,4 1011,8 1017,1 -1,9 84,1 -4,2 -2,2 2,6 966,7 -3,6 -0,1 25,2 3,1
16.11.2007 1025,7 1022,4 1024,05 -1,6 78,3 -4,9 -1,7 1,1 966,7 -4,2 4,1 9,7 0
17.11.2007 1025,6 1021,4 1023,5 -0,6 86,2 -2,6 -0,6 0,9 967,2 -2,2 0,7 6,8 0,5
18.11.2007 1021,3 1011,4 1016,35 1,2 89,7 -0,3 1,2 1,3 967,2 -0,5 3,6 21,9 0
19.11.2007 1016,4 1010,5 1013,45 -0,3 83,9 -2,6 -2,4 7,6 967,2 -1,1 0,8 32 0
20.11.2007 1016,8 1014,3 1015,55 -0,3 86,2 -2,3 -2,2 7,1 967,2 -1,2 1,1 28,4 0
21.11.2007 1014,6 1011,9 1013,25 -0,4 81,6 -3,1 -2,6 7,4 967,2 -1,9 2,9 41,7 0
22.11.2007 1014,3 1009,6 1011,95 0,5 81,1 -2,3 -1 6,2 967,2 -1,9 3,7 26,6 0
23.11.2007 1018,1 1009,5 1013,8 0,6 84,1 -1,9 -0,6 4,5 967,7 -1 5,4 23,4 0,5
24.11.2007 1023,8 1018,1 1020,95 1,8 75,4 -2,3 1,8 0,4 967,7 -5,1 7,7 4,6 0
25.11.2007 1019,4 1013,2 1016,3 -0,7 84 -3 -1,8 4,7 968,2 -5,2 1,4 20,5 0,5
26.11.2007 1019,8 1013,3 1016,55 -0,4 81,3 -3,2 -3,7 9,4 971,3 -1,9 1 33,1 3,1
27.11.2007 1027 1019,7 1023,35 -1,9 82,2 -4,5 -2,8 3,8 976,3 -5,3 2,2 21,9 5
28.11.2007 1026,9 1018,4 1022,65 -2,6 79,9 -5,6 -2,7 1,8 976,3 -4,6 2,5 14,4 0
29.11.2007 1018,1 1009,9 1014 -3,3 80,1 -6,2 -3,7 2,8 976,3 -6,5 1 26,6 0
30.11.2007 1012,6 1008,6 1010,6 1,8 86,8 -0,2 1 3,8 976,8 0,5 2,8 28 0,5
01.12.2007 1011,7 1007,9 1009,8 4,1 86,1 2 3,7 3,4 978,8 2,7 5,1 23,4 2
02.12.2007 1011,3 993,2 1002,25 5,1 80,9 2,1 2,3 11,4 985 3,4 7,5 40,3 6,2
03.12.2007 1002,7 988,2 995,45 3,7 83,5 1,2 0,4 11,4 992,2 1,1 5,7 41,7 7,2
04.12.2007 1021,4 1002,5 1011,95 2,5 78,3 -0,9 1 5,3 992,2 1,4 5 36,3 0
05.12.2007 1020,1 1004,6 1012,35 2,6 79 1,3 1,1 5,5 992,2 1,5 5,1 28,8 0
06.12.2007 1018,5 1008,7 1013,6 6,3 84,3 3,8 5,3 5,4 996,3 5,3 7,3 31,6 4,1
07.12.2007 1008,7 997,1 1002,9 7 83,4 4,3 4,7 9,4 1006,6 1,8 10,1 49,6 10,3
08.12.2007 1010,6 1002,4 1006,5 2,7 74,8 -1,3 1,6 4,9 1007,1 0,4 9 29,5 0,5
09.12.2007 1001,3 993,6 997,45 2,8 81,5 -0,1 1,4 6,2 1011,2 0,7 5,1 29,5 4,1
10.12.2007 1007,2 995,5 1001,35 2,7 83,9 0,2 2 4,1 1011,7 0,8 4,2 23 0,5
11.12.2007 1022,8 1007,3 1015,05 2,5 87,3 0,6 2,4 1,1 1013,7 1,2 3,7 19 2
12.12.2007 1032,8 1022,9 1027,85 1,7 88,9 0,1 1,2 2,9 1015,2 0,8 2,7 28,8 1,5
13.12.2007 1036,8 1032,9 1034,85 0,7 83,3 -1,8 0,4 2,5 1015,7 -1,6 2,8 29,5 0,5
14.12.2007 1039,5 1035,6 1037,55 -2,7 69,4 -7,5 -3,3 3,3 1015,7 -4,6 -1,5 27 0
15.12.2007 1038 1035,6 1036,8 -3,6 65,1 -9,2 -4,5 3,8 1015,7 -6,6 -0,1 29,1 0
16.12.2007 1038,1 1036,6 1037,35 -4,8 73,8 -8,8 -5,8 4,3 1015,7 -6,5 -4 29,5 0
17.12.2007 1038,1 1037 1037,55 -3,7 65 -9,3 -5,6 6,4 1015,7 -5,3 0,5 32,4 0
18.12.2007 1039,1 1036,9 1038 -2 65,4 -7,7 -2,1 1,8 1015,7 -5,6 4 16,9 0
19.12.2007 1040,3 1038,5 1039,4 -4,8 71,2 -9,2 -4,8 0,5 1015,7 -8,8 1,1 12,9 0
20.12.2007 1039,5 1034,5 1037 -3,6 63,1 -9,7 -3,6 0 1015,7 -9,6 10,1 2,5 0
21.12.2007 1034,5 1029,8 1032,15 -2,7 51,5 -12,6 -3,1 1,9 1015,7 -8,9 8,5 23 0
22.12.2007 1029,8 1028,2 1029 -7,1 62 -13,1 -7,8 3,3 1015,7 -9,6 -2,8 20,5 0
23.12.2007 1030,8 1029,1 1029,95 -6,6 69,9 -11,2 -6,8 1,9 1015,7 -8,9 -1,9 20,8 0
24.12.2007 1030,9 1029,1 1030 -3,4 74,9 -7,2 -3,5 1,1 1015,7 -5,2 -1,1 14 0
25.12.2007 1030,2 1025 1027,6 -4,8 76 -8,3 -5,7 4,5 1015,7 -6,6 -1,5 23 0
26.12.2007 1034,2 1024,5 1029,35 -5,4 73,1 -9,4 -6,2 3,2 1015,7 -8,4 -3,3 24,4 0
27.12.2007 1036,6 1034,1 1035,35 -2,5 76,2 -6,1 -2,5 1,6 1015,7 -4,3 0,3 14 0
28.12.2007 1035,3 1028,5 1031,9 -0,7 79,8 -3,7 -1 3,2 1015,7 -4,2 0,8 20,8 0
29.12.2007 1028,4 1021,4 1024,9 -1,8 70,8 -6,5 -3 5,2 1015,7 -6,3 2,5 23 0
30.12.2007 1025,4 1021,3 1023,35 1,8 81,2 -1 1,3 3,4 1015,7 0,8 5 23,4 0
31.12.2006 1028,8 1025,3 1027,05 0,2 80,5 -2,7 -0,3 3,6 1016,7 -1,3 1,5 20,8 1